»·PEaware :: N234CL KMFR-KRDD

N234CL :: KMFR-KRDD

FLIGHT INFORMATION

Flight Status: Arrived
Operator: Privately registered:
United States
More flights under this callsign
Pilot: Christian L. (6360)
Aircraft: BEECH AIRCRAFT BONANZA
(BE35)
More flights by this aircraft type
Origin: KMFR Rogue Valley Intl-Medford
United States
Destination: KRDD Redding Mun
United States
More flights between these airports :: More routes between these airports
Route: BRUTE7 GRENA V287 FJS V23 RBL
File this flight plan on PilotEdge
Remarks:
Altitude:
(Current/Filed)
13,000ft
Speed:
(Current/Filed)
160kts
Departed: 27-Sep-18 11:15 AM
Arrived: 27-Sep-18 12:31 PM
Distance/Time
Traveled:
115nm/1:16
Distance/Time
To Go:
Arrived

Flight Plot

Page will automatically refresh every two minutes.

Flight plan parsing failed; only flown route is shown


Map Options




Map Legend


Flown Route
Filed Route
Departure Airport
Arrival Airport
Navaid (VOR, NDB)
Fix

Horizontal Profiles

Position Reports

Time Latitude Longitude Heading Altitude Ground
Speed
27-Sep-18 10:55 42.368076 -122.872327 248 1338ft 0kts
27-Sep-18 10:56 42.368076 -122.872327 248 1338ft 0kts
27-Sep-18 10:57 42.368076 -122.872327 248 1338ft 0kts
27-Sep-18 10:58 42.368076 -122.872327 248 1338ft 0kts
27-Sep-18 10:59 42.368073 -122.872339 248 1338ft 0kts
27-Sep-18 11:00 42.368072 -122.872341 248 1338ft 0kts
27-Sep-18 11:01 42.368071 -122.872344 248 1338ft 0kts
27-Sep-18 11:02 42.368070 -122.872347 248 1338ft 0kts
27-Sep-18 11:03 42.368069 -122.872351 248 1338ft 0kts
27-Sep-18 11:04 42.368068 -122.872354 248 1338ft 0kts
27-Sep-18 11:05 42.368067 -122.872357 248 1338ft 0kts
27-Sep-18 11:06 42.368067 -122.872360 248 1338ft 0kts
27-Sep-18 11:07 42.368066 -122.872363 248 1338ft 0kts
27-Sep-18 11:08 42.368065 -122.872365 248 1338ft 0kts
27-Sep-18 11:09 42.368064 -122.872368 248 1338ft 0kts
27-Sep-18 11:10 42.368940 -122.871818 72 1338ft 9kts
27-Sep-18 11:11 42.369483 -122.871238 52 1338ft 0kts
27-Sep-18 11:12 42.369484 -122.871236 52 1338ft 0kts
27-Sep-18 11:13 42.369485 -122.871234 52 1338ft 0kts
27-Sep-18 11:14 42.369689 -122.871583 320 1338ft 9kts
27-Sep-18 11:15 42.371407 -122.872924 330 1338ft 10kts
27-Sep-18 11:16 42.372959 -122.873140 69 1338ft 0kts
27-Sep-18 11:17 42.371095 -122.871269 159 1339ft 55kts
27-Sep-18 11:18 42.345560 -122.865248 235 2473ft 108kts
27-Sep-18 11:19 42.357954 -122.890104 356 3751ft 98kts
27-Sep-18 11:20 42.386320 -122.893850 352 4889ft 105kts
27-Sep-18 11:21 42.404327 -122.877883 81 5998ft 100kts
27-Sep-18 11:22 42.408869 -122.840132 87 6956ft 103kts
27-Sep-18 11:23 42.406674 -122.803036 86 7856ft 99kts
27-Sep-18 11:24 42.405727 -122.763414 103 8693ft 110kts
27-Sep-18 11:25 42.410197 -122.721726 80 9580ft 113kts
27-Sep-18 11:26 42.393604 -122.689069 134 10412ft 111kts
27-Sep-18 11:27 42.370445 -122.660171 139 11177ft 116kts
27-Sep-18 11:28 42.349664 -122.626826 125 11923ft 118kts
27-Sep-18 11:29 42.325378 -122.635345 229 12648ft 107kts
27-Sep-18 11:30 42.303024 -122.667611 229 12998ft 136kts
27-Sep-18 11:31 42.275528 -122.709740 243 13006ft 156kts
27-Sep-18 11:32 42.259365 -122.764356 214 13009ft 162kts
27-Sep-18 11:33 42.214037 -122.755609 167 13005ft 174kts
27-Sep-18 11:34 42.167597 -122.734235 160 12999ft 175kts
27-Sep-18 11:35 42.122947 -122.709708 159 12997ft 171kts
27-Sep-18 11:36 42.079153 -122.685113 159 13005ft 170kts
27-Sep-18 11:37 42.035425 -122.660566 159 13003ft 169kts
27-Sep-18 11:38 41.991838 -122.635735 158 12994ft 169kts
27-Sep-18 11:39 41.948277 -122.610900 159 13004ft 171kts
27-Sep-18 11:40 41.904354 -122.586243 159 13004ft 170kts
27-Sep-18 11:41 41.860620 -122.561745 159 13000ft 170kts
27-Sep-18 11:42 41.816688 -122.537209 159 13006ft 171kts
27-Sep-18 11:43 41.772782 -122.512695 159 12997ft 171kts
27-Sep-18 11:44 41.728703 -122.490254 184 13001ft 167kts
27-Sep-18 11:45 41.692141 -122.525102 223 12997ft 163kts
27-Sep-18 11:46 41.656087 -122.567292 222 12997ft 172kts
27-Sep-18 11:47 41.620593 -122.608007 222 12995ft 165kts
27-Sep-18 11:48 41.586136 -122.648094 222 13006ft 165kts
27-Sep-18 11:49 41.551677 -122.688206 222 13004ft 164kts
27-Sep-18 11:50 41.517055 -122.728449 222 13004ft 164kts
27-Sep-18 11:51 41.482616 -122.768408 222 12997ft 164kts
27-Sep-18 11:52 41.445562 -122.802147 178 13010ft 168kts
27-Sep-18 11:53 41.400201 -122.785394 164 13003ft 171kts
27-Sep-18 11:54 41.354990 -122.766063 164 13000ft 170kts
27-Sep-18 11:55 41.309938 -122.746487 163 12999ft 170kts
27-Sep-18 11:56 41.264898 -122.726846 163 13004ft 171kts
27-Sep-18 11:57 41.219555 -122.707469 162 12902ft 169kts
27-Sep-18 11:58 41.175489 -122.688705 162 12900ft 164kts
27-Sep-18 11:59 41.131984 -122.670209 162 12901ft 164kts
27-Sep-18 12:00 41.088216 -122.651630 162 12900ft 164kts
27-Sep-18 12:01 41.044931 -122.633275 162 12899ft 163kts
27-Sep-18 12:02 41.001784 -122.615002 162 12902ft 163kts
27-Sep-18 12:03 40.958408 -122.596506 161 12899ft 163kts
27-Sep-18 12:04 40.915304 -122.577822 162 12906ft 162kts
27-Sep-18 12:05 40.872120 -122.559559 162 12894ft 163kts
27-Sep-18 12:06 40.875883 -122.520360 355 12893ft 172kts
27-Sep-18 12:07 40.875339 -122.558575 174 12898ft 160kts
27-Sep-18 12:08 40.837284 -122.527725 152 12903ft 162kts
27-Sep-18 12:09 40.795353 -122.505095 161 12897ft 164kts
27-Sep-18 12:10 40.752072 -122.486492 162 12902ft 162kts
27-Sep-18 12:11 40.708931 -122.468558 163 12897ft 162kts
27-Sep-18 12:12 40.664212 -122.449512 162 12556ft 176kts
27-Sep-18 12:13 40.614041 -122.428638 163 11518ft 191kts
27-Sep-18 12:14 40.562827 -122.407523 163 10538ft 195kts
27-Sep-18 12:15 40.510965 -122.386197 164 9504ft 194kts
27-Sep-18 12:16 40.459010 -122.364873 164 8276ft 194kts
27-Sep-18 12:17 40.407918 -122.343930 163 7066ft 189kts
27-Sep-18 12:18 40.359672 -122.324145 163 6047ft 176kts
27-Sep-18 12:19 40.311915 -122.304514 163 5071ft 187kts
27-Sep-18 12:20 40.267272 -122.277697 189 4491ft 186kts
27-Sep-18 12:21 40.217514 -122.294798 198 4011ft 174kts
27-Sep-18 12:22 40.205510 -122.328925 349 3740ft 140kts
27-Sep-18 12:23 40.243610 -122.320829 21 3043ft 140kts
27-Sep-18 12:24 40.279167 -122.302889 26 2999ft 133kts
27-Sep-18 12:25 40.314063 -122.295505 1 2829ft 118kts
27-Sep-18 12:26 40.345209 -122.295107 0 2698ft 111kts
27-Sep-18 12:27 40.376371 -122.295040 0 2707ft 112kts
27-Sep-18 12:28 40.406390 -122.294940 0 2690ft 86kts
27-Sep-18 12:29 40.429521 -122.295064 0 2403ft 93kts
27-Sep-18 12:30 40.457220 -122.294995 0 1392ft 93kts
27-Sep-18 12:31 40.482248 -122.295271 1 827ft 92kts
27-Sep-18 12:32 40.504290 -122.294923 358 506ft 62kts
27-Sep-18 12:33 40.507783 -122.295773 308 505ft 0kts

Navigation Log

Ident Type
Flight plan parsing failed, navigation log unavailable